createdAt,value
2022-12-25T00:00:41.477Z,6.07
2022-12-25T00:03:44.003Z,4.65
2022-12-25T00:06:46.394Z,5.65
2022-12-25T00:09:48.527Z,7.40
2022-12-25T00:12:51.063Z,6.77
2022-12-25T00:15:54.422Z,5.32
2022-12-25T00:18:59.038Z,6.00
2022-12-25T00:22:01.471Z,6.32
2022-12-25T00:25:04.072Z,8.07
2022-12-25T00:28:07.347Z,5.70
2022-12-25T00:31:17.663Z,7.00
2022-12-25T00:34:20.122Z,6.55
2022-12-25T00:37:22.186Z,7.75
2022-12-25T00:40:26.896Z,6.38
2022-12-25T00:43:29.026Z,7.20
2022-12-25T00:46:32.232Z,8.85
2022-12-25T00:49:34.634Z,5.10
2022-12-25T00:52:36.932Z,7.90
2022-12-25T00:55:39.238Z,7.38
2022-12-25T00:58:41.317Z,7.43
2022-12-25T01:01:43.734Z,8.75
2022-12-25T01:04:46.105Z,5.32
2022-12-25T01:07:48.272Z,7.60
2022-12-25T01:10:58.002Z,7.93
2022-12-25T01:14:00.124Z,7.07
2022-12-25T01:17:02.517Z,7.32
2022-12-25T01:20:07.842Z,7.18
2022-12-25T01:23:10.291Z,7.15
2022-12-25T01:26:14.243Z,7.80
2022-12-25T01:29:16.445Z,6.90
2022-12-25T01:32:19.456Z,9.43
2022-12-25T01:35:21.665Z,8.13
2022-12-25T01:38:23.904Z,8.20
2022-12-25T01:41:26.312Z,7.78
2022-12-25T01:44:37.310Z,6.82
2022-12-25T01:47:39.448Z,7.25
2022-12-25T01:50:44.684Z,7.25
2022-12-25T01:53:46.729Z,7.13
2022-12-25T01:56:51.132Z,7.38
2022-12-25T01:59:54.126Z,7.20
2022-12-25T02:02:56.564Z,9.93
2022-12-25T02:06:00.672Z,7.82
2022-12-25T02:09:04.376Z,10.80
2022-12-25T02:12:09.821Z,8.35
2022-12-25T02:15:21.072Z,4.55
2022-12-25T02:18:48.227Z,5.05
2022-12-25T02:22:16.128Z,2.58
2022-12-25T02:25:43.382Z,2.13
2022-12-25T02:28:59.976Z,1.45
2022-12-25T02:32:14.542Z,0.63
2022-12-25T02:35:35.929Z,0.60
2022-12-25T02:39:03.964Z,1.53
2022-12-25T02:42:11.913Z,2.40
2022-12-25T02:45:38.291Z,2.83
2022-12-25T02:49:10.190Z,2.53
2022-12-25T02:52:35.338Z,1.83
2022-12-25T02:59:19.302Z,1.77
2022-12-25T03:02:42.454Z,2.37
2022-12-25T03:06:03.868Z,2.23
2022-12-25T03:09:26.628Z,1.57
2022-12-25T03:12:39.042Z,2.30
2022-12-25T03:15:59.946Z,1.33
2022-12-25T03:19:26.631Z,2.17
2022-12-25T03:22:50.317Z,1.97
2022-12-25T03:26:10.958Z,2.40
2022-12-25T03:29:35.941Z,1.77
2022-12-25T03:33:43.770Z,2.22
2022-12-25T03:37:16.621Z,2.60
2022-12-25T03:40:59.894Z,2.13
2022-12-25T03:44:48.507Z,2.30
2022-12-25T03:48:20.692Z,2.00
2022-12-25T03:51:49.135Z,1.63
2022-12-25T03:55:14.908Z,1.73
2022-12-25T03:58:41.382Z,2.10
2022-12-25T04:02:02.397Z,2.13
2022-12-25T04:05:28.309Z,3.07
2022-12-25T04:08:48.791Z,2.93
2022-12-25T04:12:09.152Z,2.30
2022-12-25T04:15:29.979Z,2.70
2022-12-25T04:18:52.121Z,2.57
2022-12-25T04:22:12.921Z,2.60
2022-12-25T04:25:34.498Z,2.97
2022-12-25T04:28:57.550Z,2.60
2022-12-25T04:32:17.969Z,2.40
2022-12-25T04:35:39.762Z,3.20
2022-12-25T04:38:43.382Z,3.57
2022-12-25T04:41:45.686Z,2.57
2022-12-25T04:44:47.855Z,2.37
2022-12-25T04:47:50.086Z,2.43
2022-12-25T04:50:52.833Z,3.77
2022-12-25T04:53:57.652Z,2.20
2022-12-25T04:56:59.684Z,2.70
2022-12-25T05:00:01.738Z,2.00
2022-12-25T05:03:04.021Z,2.40
2022-12-25T05:06:09.134Z,2.97
2022-12-25T05:09:11.230Z,3.23
2022-12-25T05:12:13.699Z,3.17
2022-12-25T05:15:28.360Z,3.97
2022-12-25T05:21:33.000Z,3.13
2022-12-25T05:24:35.211Z,2.80
2022-12-25T05:27:37.327Z,3.97
2022-12-25T05:30:39.604Z,2.67
2022-12-25T05:33:42.316Z,2.10
2022-12-25T05:36:44.489Z,3.47
2022-12-25T05:39:46.552Z,3.13
2022-12-25T05:42:48.811Z,3.00
2022-12-25T05:45:51.651Z,2.80
2022-12-25T05:48:53.739Z,3.20
2022-12-25T05:51:55.937Z,2.17
2022-12-25T05:54:58.066Z,2.40
2022-12-25T05:58:00.161Z,1.97
2022-12-25T06:01:16.459Z,2.03
2022-12-25T06:04:19.115Z,2.77
2022-12-25T06:07:21.304Z,1.70
2022-12-25T06:10:23.931Z,3.57
2022-12-25T06:13:26.252Z,2.57
2022-12-25T06:16:31.713Z,2.23
2022-12-25T06:19:37.982Z,3.08
2022-12-25T06:22:40.256Z,2.13
2022-12-25T06:25:42.638Z,3.50
2022-12-25T06:28:45.698Z,1.80
2022-12-25T06:31:47.866Z,2.53
2022-12-25T06:34:50.024Z,1.63
2022-12-25T06:37:52.651Z,2.05
2022-12-25T06:40:54.955Z,3.00
2022-12-25T06:43:59.470Z,1.90
2022-12-25T06:47:01.888Z,2.83
2022-12-25T06:50:06.033Z,2.07
2022-12-25T06:53:08.209Z,2.95
2022-12-25T06:56:16.646Z,2.33
2022-12-25T06:59:18.920Z,2.90
2022-12-25T07:02:24.481Z,3.70
2022-12-25T07:05:28.168Z,3.42
2022-12-25T07:08:30.373Z,3.72
2022-12-25T07:11:32.725Z,2.08
2022-12-25T07:14:35.101Z,2.10
2022-12-25T07:17:37.216Z,2.15
2022-12-25T07:20:39.520Z,2.08
2022-12-25T07:23:42.485Z,2.13
2022-12-25T07:26:44.756Z,1.93
2022-12-25T07:29:47.151Z,1.40
2022-12-25T07:32:50.332Z,1.15
2022-12-25T07:35:52.504Z,1.40
2022-12-25T07:38:54.751Z,1.33
2022-12-25T07:41:59.309Z,0.70
2022-12-25T07:45:03.708Z,1.77
2022-12-25T07:48:08.492Z,0.75
2022-12-25T07:51:16.243Z,1.93
2022-12-25T07:54:18.665Z,1.20
2022-12-25T07:57:22.031Z,1.60
2022-12-25T08:00:29.704Z,1.30
2022-12-25T08:03:33.331Z,2.30
2022-12-25T08:06:36.158Z,0.90
2022-12-25T08:09:38.560Z,1.65
2022-12-25T08:12:40.701Z,2.30
2022-12-25T08:15:43.724Z,2.03
2022-12-25T08:18:46.298Z,1.50
2022-12-25T08:21:48.390Z,1.70
2022-12-25T08:24:50.517Z,1.50
2022-12-25T08:27:53.002Z,1.80
2022-12-25T08:30:55.777Z,1.27
2022-12-25T08:33:59.004Z,1.93
2022-12-25T08:37:01.147Z,3.37
2022-12-25T08:40:03.490Z,2.27
2022-12-25T08:43:05.885Z,3.13
2022-12-25T08:46:08.362Z,2.23
2022-12-25T08:49:10.572Z,4.57
2022-12-25T08:52:15.353Z,2.33
2022-12-25T08:55:18.305Z,3.13
2022-12-25T08:58:20.729Z,2.07
2022-12-25T09:01:22.973Z,2.40
2022-12-25T09:04:26.358Z,1.90
2022-12-25T09:07:28.755Z,4.37
2022-12-25T09:10:31.180Z,2.47
2022-12-25T09:13:33.748Z,2.03
2022-12-25T09:16:36.403Z,3.27
2022-12-25T09:19:38.575Z,2.63
2022-12-25T09:22:42.203Z,1.93
2022-12-25T09:25:44.565Z,2.10
2022-12-25T09:28:52.082Z,2.57
2022-12-25T09:31:54.771Z,2.40
2022-12-25T09:34:56.833Z,3.47
2022-12-25T09:37:59.053Z,4.87
2022-12-25T09:41:27.076Z,2.37
2022-12-25T09:44:36.964Z,2.73
2022-12-25T09:47:42.534Z,3.47
2022-12-25T09:51:03.221Z,2.90
2022-12-25T09:54:25.007Z,4.27
2022-12-25T09:57:28.595Z,2.87
2022-12-25T10:00:42.616Z,3.20
2022-12-25T10:03:59.735Z,4.25
2022-12-25T10:07:08.289Z,2.77
2022-12-25T10:10:28.468Z,3.47
2022-12-25T10:13:38.028Z,2.37
2022-12-25T10:17:06.674Z,3.77
2022-12-25T10:20:20.951Z,2.73
2022-12-25T10:23:37.184Z,2.40
2022-12-25T10:26:39.812Z,2.77
2022-12-25T10:29:43.857Z,2.77
2022-12-25T10:32:47.344Z,2.45
2022-12-25T10:35:49.994Z,2.67
2022-12-25T10:38:52.774Z,1.97
2022-12-25T10:42:16.293Z,2.17
2022-12-25T10:45:19.337Z,3.60
2022-12-25T10:48:30.808Z,2.30
2022-12-25T10:51:36.386Z,2.80
2022-12-25T10:54:38.630Z,2.97
2022-12-25T10:57:47.793Z,3.33
2022-12-25T11:01:06.344Z,3.10
2022-12-25T11:04:20.241Z,2.83
2022-12-25T11:07:28.349Z,2.27
2022-12-25T11:10:37.237Z,2.80
2022-12-25T11:13:50.760Z,2.33
2022-12-25T11:16:53.035Z,4.43
2022-12-25T11:19:58.118Z,3.23
2022-12-25T11:23:00.309Z,3.30
2022-12-25T11:26:06.135Z,3.53
2022-12-25T11:29:19.217Z,2.40
2022-12-25T11:32:27.135Z,3.43
2022-12-25T11:35:33.051Z,3.50
2022-12-25T11:38:35.175Z,3.20
2022-12-25T11:41:41.756Z,3.37
2022-12-25T11:45:07.989Z,3.17
2022-12-25T11:48:41.646Z,3.90
2022-12-25T11:51:47.494Z,3.37
2022-12-25T11:54:59.365Z,3.10
2022-12-25T11:58:24.649Z,3.37
2022-12-25T12:01:47.948Z,2.72
2022-12-25T12:05:03.759Z,2.63
2022-12-25T12:08:07.023Z,3.13
2022-12-25T12:11:24.497Z,2.13
2022-12-25T12:14:39.763Z,2.30
2022-12-25T12:20:45.515Z,3.30
2022-12-25T12:23:47.769Z,2.87
2022-12-25T12:27:26.711Z,3.13
2022-12-25T12:30:35.736Z,6.83
2022-12-25T12:36:45.504Z,2.50
2022-12-25T12:39:54.047Z,2.30
2022-12-25T12:42:56.451Z,2.47
2022-12-25T12:46:24.374Z,2.73
2022-12-25T12:49:33.768Z,2.13
2022-12-25T12:52:38.814Z,3.08
2022-12-25T12:55:41.434Z,2.33
2022-12-25T12:58:52.774Z,1.70
2022-12-25T13:01:55.158Z,2.40
2022-12-25T13:05:24.748Z,2.37
2022-12-25T13:08:51.672Z,2.07
2022-12-25T13:11:54.123Z,1.90
2022-12-25T13:14:56.269Z,1.60
2022-12-25T13:18:05.803Z,2.70
2022-12-25T13:21:08.583Z,1.93
2022-12-25T13:24:22.775Z,2.27
2022-12-25T13:27:30.217Z,1.20
2022-12-25T13:30:34.111Z,1.90
2022-12-25T13:33:38.457Z,2.43
2022-12-25T13:36:40.749Z,3.30
2022-12-25T13:39:58.868Z,1.63
2022-12-25T13:43:02.021Z,1.70
2022-12-25T13:46:04.656Z,2.33
2022-12-25T13:49:21.440Z,3.67
2022-12-25T13:52:38.081Z,1.90
2022-12-25T13:55:41.886Z,2.37
2022-12-25T13:58:49.812Z,2.27
2022-12-25T14:01:54.284Z,1.83
2022-12-25T14:04:58.481Z,1.67
2022-12-25T14:08:03.386Z,1.20
2022-12-25T14:11:08.209Z,1.70
2022-12-25T14:14:25.742Z,0.60
2022-12-25T14:17:28.997Z,0.83
2022-12-25T14:20:36.316Z,1.27
2022-12-25T14:23:46.664Z,1.00
2022-12-25T14:27:04.246Z,0.80
2022-12-25T14:30:13.484Z,0.30
2022-12-25T14:33:22.022Z,0.73
2022-12-25T14:36:24.246Z,0.70
2022-12-25T14:39:38.186Z,1.10
2022-12-25T14:42:40.348Z,1.03
2022-12-25T14:45:42.668Z,0.60
2022-12-25T14:48:47.567Z,0.60
2022-12-25T14:51:52.613Z,1.07
2022-12-25T14:55:01.355Z,0.67
2022-12-25T14:58:08.218Z,1.33
2022-12-25T15:01:23.236Z,0.80
2022-12-25T15:04:27.158Z,1.33
2022-12-25T15:07:31.607Z,1.10
2022-12-25T15:13:59.344Z,0.83
2022-12-25T15:17:03.082Z,0.97
2022-12-25T15:20:06.594Z,1.50
2022-12-25T15:23:20.473Z,1.10
2022-12-25T15:26:23.408Z,1.33
2022-12-25T15:30:00.020Z,1.67
2022-12-25T15:32:49.558Z,2.23
2022-12-25T15:35:52.631Z,1.50
2022-12-25T15:38:55.785Z,1.67
2022-12-25T15:42:13.318Z,1.80
2022-12-25T15:45:23.631Z,3.30
2022-12-25T15:48:25.647Z,1.90
2022-12-25T15:51:28.234Z,2.73
2022-12-25T15:54:32.221Z,2.60
2022-12-25T15:57:35.535Z,2.33
2022-12-25T16:00:37.664Z,2.33
2022-12-25T16:03:42.792Z,2.53
2022-12-25T16:06:45.062Z,2.30
2022-12-25T16:09:47.638Z,3.30
2022-12-25T16:12:51.018Z,3.10
2022-12-25T16:15:54.405Z,3.60
2022-12-25T16:18:57.142Z,3.20
2022-12-25T16:21:59.488Z,3.57
2022-12-25T16:25:03.207Z,4.07
2022-12-25T16:28:09.788Z,3.80
2022-12-25T16:31:12.147Z,4.67
2022-12-25T16:34:14.354Z,6.50
2022-12-25T16:37:16.747Z,3.83
2022-12-25T16:40:18.877Z,5.20
2022-12-25T16:43:24.124Z,5.13
2022-12-25T16:46:27.028Z,5.17
2022-12-25T16:49:31.471Z,4.70
2022-12-25T16:52:34.953Z,5.07
2022-12-25T16:55:39.741Z,4.50
2022-12-25T16:58:43.545Z,4.93
2022-12-25T17:01:45.706Z,4.60
2022-12-25T17:04:54.793Z,5.10
2022-12-25T17:07:56.926Z,3.57
2022-12-25T17:11:04.911Z,3.00
2022-12-25T17:14:07.111Z,3.60
2022-12-25T17:17:09.539Z,3.90
2022-12-25T17:20:12.301Z,4.57
2022-12-25T17:23:14.521Z,3.87
2022-12-25T17:26:18.220Z,2.20
2022-12-25T17:29:22.723Z,2.60
2022-12-25T17:35:27.239Z,2.97
2022-12-25T17:38:31.059Z,2.60
2022-12-25T17:41:34.247Z,3.43
2022-12-25T17:44:36.323Z,2.87
2022-12-25T17:47:38.553Z,3.47
2022-12-25T17:50:42.753Z,4.13
2022-12-25T17:53:48.054Z,3.67
2022-12-25T17:56:50.780Z,4.10
2022-12-25T17:59:54.136Z,3.23
2022-12-25T18:02:57.747Z,3.30
2022-12-25T18:06:04.278Z,3.42
2022-12-25T18:09:07.305Z,2.90
2022-12-25T18:12:10.567Z,2.07
2022-12-25T18:15:12.907Z,2.97
2022-12-25T18:18:15.519Z,2.93
2022-12-25T18:21:18.184Z,2.63
2022-12-25T18:24:20.293Z,2.70
2022-12-25T18:27:22.400Z,3.30
2022-12-25T18:30:24.615Z,3.97
2022-12-25T18:33:27.461Z,3.00
2022-12-25T18:36:31.006Z,2.97
2022-12-25T18:39:33.610Z,2.23
2022-12-25T18:42:38.859Z,3.50
2022-12-25T18:45:41.659Z,3.13
2022-12-25T18:48:44.426Z,3.63
2022-12-25T18:51:46.667Z,3.77
2022-12-25T18:54:49.172Z,3.57
2022-12-25T18:57:51.555Z,2.73
2022-12-25T19:00:53.871Z,3.53
2022-12-25T19:04:04.046Z,2.60
2022-12-25T19:07:07.457Z,3.70
2022-12-25T19:10:11.742Z,3.17
2022-12-25T19:13:16.384Z,3.03
2022-12-25T19:16:18.786Z,2.23
2022-12-25T19:19:21.771Z,2.67
2022-12-25T19:22:23.932Z,2.17
2022-12-25T19:25:26.140Z,2.97
2022-12-25T19:28:29.214Z,3.03
2022-12-25T19:31:31.322Z,3.67
2022-12-25T19:34:33.505Z,3.93
2022-12-25T19:37:35.840Z,4.10
2022-12-25T19:41:00.280Z,3.80
2022-12-25T19:44:03.627Z,3.85
2022-12-25T19:47:06.810Z,3.92
2022-12-25T19:50:09.507Z,4.33
2022-12-25T19:53:11.881Z,4.00
2022-12-25T19:56:14.888Z,10.50
2022-12-25T19:59:17.053Z,5.43
2022-12-25T20:02:19.441Z,4.43
2022-12-25T20:05:21.749Z,4.30
2022-12-25T20:08:25.731Z,3.83
2022-12-25T20:11:30.885Z,4.20
2022-12-25T20:14:33.151Z,4.53
2022-12-25T20:17:35.378Z,4.70
2022-12-25T20:20:37.532Z,4.37
2022-12-25T20:23:40.302Z,3.40
2022-12-25T20:26:44.382Z,3.90
2022-12-25T20:29:49.843Z,3.03
2022-12-25T20:32:52.169Z,3.27
2022-12-25T20:35:55.260Z,3.50
2022-12-25T20:38:59.958Z,3.50
2022-12-25T20:42:04.390Z,3.43
2022-12-25T20:45:07.757Z,2.73
2022-12-25T20:48:14.024Z,1.93
2022-12-25T20:51:22.633Z,2.33
2022-12-25T20:54:24.740Z,3.00
2022-12-25T20:57:28.938Z,2.45
2022-12-25T21:00:30.945Z,2.67
2022-12-25T21:03:33.741Z,2.90
2022-12-25T21:06:37.248Z,3.37
2022-12-25T21:09:40.466Z,3.67
2022-12-25T21:12:42.508Z,4.03
2022-12-25T21:15:46.841Z,4.77
2022-12-25T21:18:50.762Z,4.70
2022-12-25T21:21:52.840Z,4.73
2022-12-25T21:24:55.357Z,4.63
2022-12-25T21:27:58.533Z,4.17
2022-12-25T21:31:05.730Z,6.83
2022-12-25T21:34:07.971Z,5.60
2022-12-25T21:37:10.159Z,6.50
2022-12-25T21:40:16.319Z,6.77
2022-12-25T21:43:18.801Z,6.07
2022-12-25T21:46:21.392Z,5.93
2022-12-25T21:49:44.312Z,7.00
2022-12-25T21:52:47.598Z,5.80
2022-12-25T21:56:02.558Z,6.63
2022-12-25T21:59:07.058Z,7.15
2022-12-25T22:02:11.693Z,6.85
2022-12-25T22:08:36.324Z,5.70
2022-12-25T22:11:57.209Z,5.60
2022-12-25T22:15:03.193Z,5.97
2022-12-25T22:18:23.963Z,4.87
2022-12-25T22:21:27.207Z,6.30
2022-12-25T22:24:31.594Z,6.00
2022-12-25T22:27:36.098Z,5.87
2022-12-25T22:30:38.469Z,4.38
2022-12-25T22:33:40.880Z,5.33
2022-12-25T22:36:43.547Z,4.87
2022-12-25T22:39:46.172Z,4.00
2022-12-25T22:42:48.652Z,4.20
2022-12-25T22:45:51.361Z,3.87
2022-12-25T22:48:53.473Z,4.70
2022-12-25T22:51:56.286Z,5.23
2022-12-25T22:54:58.621Z,6.43
2022-12-25T22:58:01.890Z,4.00
2022-12-25T23:01:04.247Z,3.73
2022-12-25T23:04:07.844Z,2.80
2022-12-25T23:07:11.038Z,3.20
2022-12-25T23:10:13.314Z,2.50
2022-12-25T23:13:36.459Z,2.37
2022-12-25T23:16:38.645Z,2.23
2022-12-25T23:20:00.370Z,1.77
2022-12-25T23:23:21.016Z,1.80
2022-12-25T23:26:23.441Z,2.17
2022-12-25T23:29:37.716Z,1.57
2022-12-25T23:32:40.603Z,1.35
2022-12-25T23:35:43.833Z,1.50
2022-12-25T23:38:46.050Z,2.33
2022-12-25T23:41:48.333Z,1.73
2022-12-25T23:44:50.531Z,1.50
2022-12-25T23:47:52.797Z,1.07
2022-12-25T23:50:54.932Z,1.37
2022-12-25T23:53:57.108Z,1.83
2022-12-25T23:56:59.838Z,1.17
